Time;durP1;ratioP1;P1;durP2;ratioP2;P2;SDS_P1;SDS_P2;PMS_P1;PMS_P2;Temp;Humidity;BMP_temperature;BMP_pressure;BME280_temperature;BME280_humidity;BME280_pressure;Samples;Min_cycle;Max_cycle;Signal;HPM_P1;HPM_P2
2024/03/15 00:00:44;;;;;;;5.93;3.33;;;14.70;74.60;;;;;;9177056;19;20015;-65
2024/03/15 00:03:52;;;;;;;6.47;3.78;;;14.60;74.60;;;;;;9176765;19;20014;-65
2024/03/15 00:06:57;;;;;;;5.38;3.75;;;14.60;74.60;;;;;;9179234;19;20037;-65
2024/03/15 00:10:09;;;;;;;6.60;3.95;;;14.60;74.60;;;;;;9177826;19;20022;-65
2024/03/15 00:13:15;;;;;;;9.73;3.58;;;14.60;74.60;;;;;;9177979;19;20007;-65
2024/03/15 00:16:22;;;;;;;7.03;3.47;;;14.60;74.70;;;;;;9176957;19;20018;-65
2024/03/15 00:19:28;;;;;;;6.55;3.92;;;14.60;74.70;;;;;;9177959;19;20025;-65
2024/03/15 00:22:54;;;;;;;8.80;4.28;;;14.60;74.70;;;;;;9176981;19;20360;-65
2024/03/15 00:26:02;;;;;;;9.80;4.53;;;14.60;74.80;;;;;;9177659;19;20025;-65
2024/03/15 00:29:11;;;;;;;5.03;3.70;;;14.60;74.80;;;;;;9178177;19;20027;-65
2024/03/15 00:32:16;;;;;;;9.73;4.43;;;14.60;74.80;;;;;;9174721;19;20019;-65
2024/03/15 00:35:23;;;;;;;9.32;4.03;;;14.60;74.80;;;;;;9176431;19;20022;-65
2024/03/15 00:38:29;;;;;;;7.80;4.07;;;14.50;74.80;;;;;;9176844;19;20010;-65
2024/03/15 00:41:40;;;;;;;7.75;4.18;;;14.50;74.80;;;;;;9177326;19;20030;-65
2024/03/15 00:44:45;;;;;;;8.27;4.07;;;14.50;74.80;;;;;;9174521;19;20023;-65
2024/03/15 00:47:54;;;;;;;5.93;3.65;;;14.50;74.90;;;;;;9177831;19;20018;-65
2024/03/15 00:51:00;;;;;;;11.63;4.47;;;14.50;74.90;;;;;;9173178;19;20018;-65
2024/03/15 00:54:09;;;;;;;7.50;4.63;;;14.50;74.90;;;;;;9177189;19;20030;-65
2024/03/15 00:57:17;;;;;;;7.07;4.32;;;14.50;74.90;;;;;;9176686;19;20033;-65
2024/03/15 01:00:25;;;;;;;11.65;4.50;;;14.40;74.90;;;;;;9176789;19;20034;-65
2024/03/15 01:03:30;;;;;;;6.93;4.30;;;14.40;75.00;;;;;;9175207;19;20082;-65
2024/03/15 01:06:38;;;;;;;8.80;3.97;;;14.40;75.00;;;;;;9176208;19;20029;-65
2024/03/15 01:09:44;;;;;;;7.40;4.25;;;14.40;75.00;;;;;;9176555;19;20010;-65
2024/03/15 01:12:54;;;;;;;7.95;4.45;;;14.40;75.10;;;;;;9175413;19;20349;-66
2024/03/15 01:16:00;;;;;;;10.27;4.32;;;14.40;75.10;;;;;;9175655;19;20017;-65
2024/03/15 01:19:08;;;;;;;10.63;4.32;;;14.40;75.20;;;;;;9176185;19;20050;-65
2024/03/15 01:22:13;;;;;;;10.35;4.45;;;14.40;75.20;;;;;;9175881;19;20011;-66
2024/03/15 01:25:21;;;;;;;9.18;5.47;;;14.40;75.20;;;;;;9173697;19;20034;-65
2024/03/15 01:28:30;;;;;;;10.75;4.80;;;14.30;75.10;;;;;;9176663;19;20646;-65
2024/03/15 01:31:37;;;;;;;7.78;4.90;;;14.40;75.20;;;;;;9175692;19;20026;-66
2024/03/15 01:34:43;;;;;;;7.97;4.63;;;14.30;75.20;;;;;;9173648;19;20082;-66
2024/03/15 01:37:50;;;;;;;7.43;4.38;;;14.30;75.30;;;;;;9173268;19;20377;-65
2024/03/15 01:40:56;;;;;;;10.05;5.00;;;14.30;75.30;;;;;;9175329;19;20006;-66
2024/03/15 01:44:06;;;;;;;7.93;4.28;;;14.30;75.30;;;;;;9174614;19;20014;-65
2024/03/15 01:47:12;;;;;;;9.20;4.65;;;14.20;75.30;;;;;;9176101;19;20014;-65
2024/03/15 01:50:21;;;;;;;9.30;4.95;;;14.20;75.30;;;;;;9169367;19;20022;-65
2024/03/15 01:53:27;;;;;;;12.55;4.45;;;14.20;75.40;;;;;;9173004;19;20056;-65
2024/03/15 01:56:35;;;;;;;8.48;5.07;;;14.20;75.40;;;;;;9172620;19;20471;-65
2024/03/15 01:59:44;;;;;;;13.43;5.07;;;14.20;75.50;;;;;;9172747;19;20059;-65
2024/03/15 02:02:51;;;;;;;8.32;4.85;;;14.20;75.50;;;;;;9172984;19;20018;-65
2024/03/15 02:05:56;;;;;;;11.48;5.40;;;14.10;75.50;;;;;;9169723;19;20038;-66
2024/03/15 02:09:04;;;;;;;9.50;4.85;;;14.10;75.50;;;;;;9171906;19;20764;-66
2024/03/15 02:12:10;;;;;;;9.35;4.88;;;14.10;75.60;;;;;;9173862;19;20010;-66
2024/03/15 02:15:20;;;;;;;7.45;4.95;;;14.10;75.60;;;;;;9171900;19;20090;-66
2024/03/15 02:18:26;;;;;;;9.27;5.10;;;14.10;75.70;;;;;;9172328;19;20011;-65
2024/03/15 02:21:36;;;;;;;8.57;4.97;;;14.10;75.70;;;;;;9172125;19;20014;-65
2024/03/15 02:24:42;;;;;;;13.30;5.35;;;14.10;76.30;;;;;;9169905;19;20733;-65
2024/03/15 02:27:50;;;;;;;9.95;5.78;;;14.10;75.80;;;;;;9172273;19;20019;-65
2024/03/15 02:30:55;;;;;;;8.95;4.38;;;14.10;75.80;;;;;;9171447;19;20480;-65
2024/03/15 02:34:03;;;;;;;10.57;5.53;;;14.00;75.80;;;;;;9171219;19;20022;-65
2024/03/15 02:37:11;;;;;;;7.43;4.80;;;14.00;75.80;;;;;;9168607;19;20022;-65
2024/03/15 02:40:19;;;;;;;10.75;5.28;;;14.00;75.80;;;;;;9170798;19;20357;-65
2024/03/15 02:43:24;;;;;;;12.20;5.60;;;14.00;75.90;;;;;;9169610;19;20930;-65
2024/03/15 02:46:31;;;;;;;13.85;5.35;;;14.00;75.90;;;;;;9178471;19;20015;-65
2024/03/15 02:49:37;;;;;;;8.75;5.47;;;14.00;76.00;;;;;;9174367;19;20052;-65
2024/03/15 02:52:48;;;;;;;10.10;4.53;;;14.00;76.00;;;;;;9179352;19;20364;-65
2024/03/15 02:55:55;;;;;;;9.73;4.65;;;14.00;76.00;;;;;;9179368;19;20349;-65
2024/03/15 02:59:02;;;;;;;13.27;5.43;;;13.90;76.00;;;;;;9179327;19;20022;-66
2024/03/15 03:02:08;;;;;;;14.38;4.70;;;13.90;76.00;;;;;;9180134;19;20018;-65
2024/03/15 03:05:16;;;;;;;10.40;5.50;;;13.90;76.10;;;;;;9177899;19;20375;-66
2024/03/15 03:08:27;;;;;;;10.13;4.93;;;13.90;76.10;;;;;;9179153;19;20371;-65
2024/03/15 03:11:34;;;;;;;13.35;4.88;;;13.90;76.10;;;;;;9179084;19;20018;-66
2024/03/15 03:14:40;;;;;;;7.50;4.90;;;13.90;76.20;;;;;;9178580;19;20014;-65
2024/03/15 03:17:47;;;;;;;8.57;5.05;;;13.90;76.20;;;;;;9178601;19;20023;-65
2024/03/15 03:20:53;;;;;;;9.35;5.50;;;13.90;76.20;;;;;;9179046;19;20014;-65
2024/03/15 03:24:03;;;;;;;8.55;4.68;;;13.90;76.20;;;;;;9178391;19;20495;-65
2024/03/15 03:27:09;;;;;;;11.85;5.43;;;13.90;76.30;;;;;;9178911;19;20027;-65
2024/03/15 03:30:17;;;;;;;8.82;4.43;;;13.90;76.30;;;;;;9178340;19;20014;-66
2024/03/15 03:33:23;;;;;;;7.80;5.00;;;13.90;76.30;;;;;;9179253;19;20014;-65
2024/03/15 03:36:31;;;;;;;9.63;5.00;;;13.90;76.40;;;;;;9178267;19;20037;-66
2024/03/15 03:39:39;;;;;;;13.07;5.53;;;13.80;76.30;;;;;;9178376;19;20019;-66
2024/03/15 03:42:47;;;;;;;8.82;4.75;;;13.90;76.50;;;;;;9179239;19;20019;-65
2024/03/15 03:45:54;;;;;;;10.00;5.25;;;13.80;76.40;;;;;;9177882;19;20044;-66
2024/03/15 03:49:01;;;;;;;11.75;5.72;;;13.80;76.40;;;;;;9178642;19;20019;-65
2024/03/15 03:52:07;;;;;;;9.20;4.93;;;13.80;76.40;;;;;;9176728;19;20048;-66
2024/03/15 03:55:17;;;;;;;14.13;5.97;;;13.80;76.50;;;;;;9179887;19;20022;-65
2024/03/15 03:58:23;;;;;;;8.43;5.18;;;13.80;76.50;;;;;;9177896;19;20063;-65
2024/03/15 04:01:32;;;;;;;9.30;5.15;;;13.80;76.60;;;;;;9178301;19;20029;-65
2024/03/15 04:04:38;;;;;;;10.63;5.53;;;13.80;76.60;;;;;;9178647;19;20073;-65
2024/03/15 04:07:46;;;;;;;13.88;5.45;;;13.80;76.60;;;;;;9179283;19;20011;-65
2024/03/15 04:10:54;;;;;;;8.57;4.93;;;13.80;76.70;;;;;;9178131;19;20025;-65
2024/03/15 04:14:03;;;;;;;10.77;6.13;;;13.80;76.70;;;;;;9178975;19;20022;-66
2024/03/15 04:17:08;;;;;;;8.95;4.68;;;13.80;76.70;;;;;;9178743;19;20019;-65
2024/03/15 04:20:16;;;;;;;14.10;5.80;;;13.80;76.80;;;;;;9177821;19;20022;-66
2024/03/15 04:23:23;;;;;;;8.15;4.72;;;13.80;76.70;;;;;;9178980;19;20081;-66
2024/03/15 04:26:34;;;;;;;10.75;5.30;;;13.80;76.80;;;;;;9176326;19;20019;-65
2024/03/15 04:29:40;;;;;;;15.57;5.60;;;13.80;76.80;;;;;;9177313;19;20021;-65
2024/03/15 04:32:49;;;;;;;11.55;5.32;;;13.80;76.80;;;;;;9177747;19;20018;-65
2024/03/15 04:35:55;;;;;;;9.73;4.95;;;13.80;76.90;;;;;;9178112;19;20792;-65
2024/03/15 04:39:05;;;;;;;10.55;5.32;;;13.80;76.90;;;;;;9175400;19;20368;-65
2024/03/15 04:42:14;;;;;;;8.18;4.85;;;13.80;76.90;;;;;;9175285;19;20026;-66
2024/03/15 04:45:22;;;;;;;10.32;5.30;;;13.80;77.00;;;;;;9176273;19;20015;-66
2024/03/15 04:48:27;;;;;;;12.23;5.43;;;13.70;76.90;;;;;;9176892;19;20022;-65
2024/03/15 04:51:35;;;;;;;8.93;4.95;;;13.80;77.00;;;;;;9173275;19;20022;-65
2024/03/15 04:54:40;;;;;;;15.80;5.65;;;13.80;77.00;;;;;;9176885;19;20450;-65
2024/03/15 04:57:50;;;;;;;13.05;4.60;;;13.80;77.00;;;;;;9176112;19;20055;-65
2024/03/15 05:00:57;;;;;;;9.20;4.55;;;13.80;77.10;;;;;;9176070;19;20010;-66
2024/03/15 05:04:05;;;;;;;10.60;5.25;;;13.80;77.10;;;;;;9175376;19;20444;-66
2024/03/15 05:07:12;;;;;;;16.52;5.22;;;13.70;77.10;;;;;;9174852;19;20559;-65
2024/03/15 05:10:19;;;;;;;10.82;4.72;;;13.80;77.20;;;;;;9174247;19;20360;-66
2024/03/15 05:13:28;;;;;;;14.45;5.65;;;13.80;77.90;;;;;;9174534;19;20031;-66
2024/03/15 05:16:36;;;;;;;13.77;5.65;;;13.80;77.90;;;;;;9175443;19;20014;-65
2024/03/15 05:19:42;;;;;;;15.02;5.25;;;13.70;77.30;;;;;;9175459;19;20018;-65
2024/03/15 05:22:49;;;;;;;11.25;5.35;;;13.70;77.30;;;;;;9175869;19;20102;-65
2024/03/15 05:25:56;;;;;;;15.30;6.05;;;13.70;77.50;;;;;;9175446;19;20437;-66
2024/03/15 05:29:06;;;;;;;13.13;5.95;;;13.70;78.10;;;;;;9173394;19;20018;-66
2024/03/15 05:32:11;;;;;;;13.35;5.13;;;13.70;77.60;;;;;;9174888;19;20020;-66
2024/03/15 05:35:21;;;;;;;11.68;5.38;;;13.60;77.70;;;;;;9174374;19;20018;-66
2024/03/15 05:38:27;;;;;;;9.93;5.72;;;13.60;77.80;;;;;;9172993;19;20026;-66
2024/03/15 05:41:34;;;;;;;11.32;6.07;;;13.60;77.90;;;;;;9174047;19;20026;-66
2024/03/15 05:44:45;;;;;;;8.68;5.22;;;13.60;78.00;;;;;;9174388;19;20371;-66
2024/03/15 05:47:52;;;;;;;7.07;4.80;;;13.60;78.70;;;;;;9172957;19;20019;-66
2024/03/15 05:50:58;;;;;;;13.77;5.57;;;13.60;78.10;;;;;;9170380;19;20019;-66
2024/03/15 05:54:06;;;;;;;10.05;5.38;;;13.60;78.10;;;;;;9174484;19;20058;-66
2024/03/15 05:57:11;;;;;;;10.40;5.28;;;13.60;78.20;;;;;;9175716;19;20014;-66
2024/03/15 06:00:23;;;;;;;13.65;5.85;;;13.60;78.30;;;;;;9172067;19;20010;-66
2024/03/15 06:03:28;;;;;;;14.90;6.25;;;13.60;78.40;;;;;;9174765;19;20018;-66
2024/03/15 06:06:36;;;;;;;9.90;6.13;;;13.60;78.40;;;;;;9172038;19;20010;-66
2024/03/15 06:09:42;;;;;;;11.55;5.70;;;13.50;78.50;;;;;;9173328;19;20364;-66
2024/03/15 06:12:50;;;;;;;8.52;5.45;;;13.50;78.50;;;;;;9174469;19;20015;-66
2024/03/15 06:15:59;;;;;;;12.13;5.30;;;13.50;78.60;;;;;;9173472;19;20018;-66
2024/03/15 06:19:07;;;;;;;14.15;6.25;;;13.50;78.70;;;;;;9173319;19;20042;-66
2024/03/15 06:22:13;;;;;;;13.18;6.72;;;13.50;78.70;;;;;;9184294;19;20010;-66
2024/03/15 06:25:21;;;;;;;15.88;5.80;;;13.50;78.80;;;;;;9183083;19;20026;-67
2024/03/15 06:28:27;;;;;;;11.85;5.80;;;13.50;78.80;;;;;;9178342;19;20078;-65
2024/03/15 06:31:37;;;;;;;11.35;6.07;;;13.50;79.00;;;;;;9182194;19;20022;-66
2024/03/15 06:34:44;;;;;;;14.27;6.68;;;13.50;79.00;;;;;;9179700;19;20051;-66
2024/03/15 06:37:54;;;;;;;14.18;6.32;;;13.50;79.00;;;;;;9180406;19;20508;-67
2024/03/15 06:41:07;;;;;;;7.82;5.15;;;13.50;79.00;;;;;;9181075;19;20373;-66
2024/03/15 06:44:25;;;;;;;12.70;6.00;;;13.50;79.10;;;;;;9181544;19;20029;-66
2024/03/15 06:47:34;;;;;;;17.67;7.20;;;13.50;79.10;;;;;;9180316;19;20621;-66
2024/03/15 06:50:48;;;;;;;13.63;6.28;;;13.50;79.20;;;;;;9177153;19;20014;-67
2024/03/15 06:53:52;;;;;;;24.38;7.10;;;13.50;79.30;;;;;;9182814;19;20014;-67
2024/03/15 06:57:00;;;;;;;15.60;7.03;;;13.50;79.30;;;;;;9182665;19;20018;-66
2024/03/15 07:00:09;;;;;;;17.08;6.30;;;13.50;79.40;;;;;;9181810;19;20014;-66
2024/03/15 07:03:20;;;;;;;11.80;5.95;;;13.50;79.40;;;;;;9181860;19;20015;-66
2024/03/15 07:06:27;;;;;;;14.30;6.72;;;13.50;79.50;;;;;;9180547;19;20010;-66
2024/03/15 07:09:35;;;;;;;10.70;6.30;;;13.50;79.50;;;;;;9181932;19;20418;-66
2024/03/15 07:12:41;;;;;;;17.63;6.28;;;13.50;79.50;;;;;;9181209;19;20014;-66
2024/03/15 07:15:49;;;;;;;13.77;5.53;;;13.50;79.60;;;;;;9181337;19;20015;-66
2024/03/15 07:18:59;;;;;;;17.02;6.97;;;13.50;79.70;;;;;;9181783;19;20047;-66
2024/03/15 07:22:07;;;;;;;14.95;5.90;;;13.50;79.90;;;;;;9180698;19;20026;-67
2024/03/15 07:25:14;;;;;;;10.45;5.40;;;13.50;79.90;;;;;;9180468;19;20022;-67
2024/03/15 07:28:23;;;;;;;13.85;5.82;;;13.60;80.00;;;;;;9178393;19;20025;-66
2024/03/15 07:31:30;;;;;;;12.85;5.93;;;13.60;80.10;;;;;;9175315;19;20026;-67
2024/03/15 07:34:40;;;;;;;11.20;5.90;;;13.60;80.10;;;;;;9180171;19;20789;-67
2024/03/15 07:37:47;;;;;;;11.80;4.90;;;13.60;80.20;;;;;;9179263;19;20366;-67
2024/03/15 07:40:54;;;;;;;11.25;4.80;;;13.60;80.20;;;;;;9180522;19;20026;-66
2024/03/15 07:44:00;;;;;;;9.60;4.32;;;13.60;80.20;;;;;;9179395;19;20081;-66
2024/03/15 07:47:09;;;;;;;8.40;5.40;;;13.60;80.30;;;;;;9178522;19;20349;-67
2024/03/15 07:50:17;;;;;;;9.88;5.20;;;13.60;80.30;;;;;;9175626;19;20767;-67
2024/03/15 07:53:24;;;;;;;12.73;5.50;;;13.70;80.50;;;;;;9179953;19;20438;-66
2024/03/15 07:56:30;;;;;;;15.57;5.85;;;13.70;80.50;;;;;;9179828;19;20116;-66
2024/03/15 07:59:38;;;;;;;14.82;5.65;;;13.70;80.60;;;;;;9179220;19;20372;-67
2024/03/15 08:02:44;;;;;;;13.15;4.97;;;13.80;80.70;;;;;;9179202;19;20018;-66
2024/03/15 08:06:00;;;;;;;8.45;4.60;;;13.80;80.70;;;;;;9178769;19;20025;-66
2024/03/15 08:09:07;;;;;;;10.88;4.72;;;13.80;80.80;;;;;;9177021;19;20674;-66
2024/03/15 08:12:19;;;;;;;14.75;5.20;;;13.90;80.80;;;;;;9178740;19;20022;-67
2024/03/15 08:15:29;;;;;;;15.00;5.43;;;13.90;80.80;;;;;;9178300;19;20489;-67
2024/03/15 08:18:37;;;;;;;11.20;5.05;;;14.00;80.80;;;;;;9179208;19;20019;-66
2024/03/15 08:21:46;;;;;;;12.35;5.63;;;14.00;80.90;;;;;;9178773;19;20026;-68
2024/03/15 08:24:53;;;;;;;8.73;5.63;;;14.10;81.20;;;;;;9177412;19;20022;-67
2024/03/15 08:27:59;;;;;;;8.85;5.30;;;14.20;81.30;;;;;;9175690;19;20029;-67
2024/03/15 08:31:06;;;;;;;8.45;4.85;;;14.30;81.40;;;;;;9177982;19;20372;-67
2024/03/15 08:34:12;;;;;;;8.25;5.75;;;14.40;81.30;;;;;;9177557;19;20018;-67
2024/03/15 08:37:22;;;;;;;15.50;5.30;;;14.40;81.20;;;;;;9176758;19;20022;-67
2024/03/15 08:40:28;;;;;;;7.28;5.05;;;14.60;81.40;;;;;;9177699;19;20029;-66
2024/03/15 08:43:36;;;;;;;13.85;5.03;;;14.70;81.30;;;;;;9176939;19;20396;-67
2024/03/15 08:46:43;;;;;;;7.50;4.70;;;14.80;81.30;;;;;;9175555;19;20014;-67
2024/03/15 08:49:51;;;;;;;11.00;5.70;;;14.80;81.10;;;;;;9169805;19;20499;-67
2024/03/15 08:53:00;;;;;;;11.00;6.20;;;14.90;81.10;;;;;;9177927;19;20015;-67
2024/03/15 08:56:07;;;;;;;15.23;5.25;;;14.90;80.90;;;;;;9176855;19;20368;-67
2024/03/15 08:59:13;;;;;;;10.15;5.20;;;15.00;80.80;;;;;;9175692;19;20010;-67
2024/03/15 09:02:21;;;;;;;8.40;4.32;;;15.00;80.70;;;;;;9177107;19;20018;-67
2024/03/15 09:05:26;;;;;;;8.85;4.53;;;15.10;80.70;;;;;;9173386;19;20014;-67
2024/03/15 09:08:37;;;;;;;7.78;4.47;;;15.10;80.60;;;;;;9171907;19;20021;-68
2024/03/15 09:11:42;;;;;;;7.57;3.97;;;15.10;80.40;;;;;;9173736;19;20037;-68
2024/03/15 09:14:52;;;;;;;10.32;4.35;;;15.10;80.30;;;;;;9174149;19;20018;-68
2024/03/15 09:17:59;;;;;;;8.95;4.90;;;15.10;80.30;;;;;;9174604;19;20025;-66
2024/03/15 09:21:08;;;;;;;9.65;4.60;;;15.10;80.20;;;;;;9176386;19;20773;-66
2024/03/15 09:24:18;;;;;;;9.40;4.65;;;15.10;80.30;;;;;;9173852;19;20145;-66
2024/03/15 09:27:27;;;;;;;7.53;4.05;;;15.10;80.30;;;;;;9174903;19;20030;-67
2024/03/15 09:30:36;;;;;;;11.93;4.60;;;15.00;80.10;;;;;;9174526;19;20546;-66
2024/03/15 09:33:54;;;;;;;11.02;4.35;;;15.00;80.20;;;;;;9175495;19;20037;-67
2024/03/15 09:37:06;;;;;;;8.98;4.50;;;15.00;80.20;;;;;;9172743;19;20411;-68
2024/03/15 09:40:18;;;;;;;14.30;4.10;;;15.00;80.10;;;;;;9174288;19;20018;-66
2024/03/15 09:43:23;;;;;;;9.60;3.97;;;15.00;80.10;;;;;;9175198;19;20015;-67
2024/03/15 09:46:31;;;;;;;11.13;4.68;;;15.00;80.10;;;;;;9173782;19;20025;-67
2024/03/15 09:49:39;;;;;;;11.40;4.18;;;14.90;80.10;;;;;;9168426;19;20018;-66
2024/03/15 09:52:47;;;;;;;10.00;3.38;;;15.00;80.20;;;;;;9174472;19;20490;-67
2024/03/15 09:55:57;;;;;;;9.43;3.90;;;14.90;80.20;;;;;;9171935;19;20555;-67
2024/03/15 09:59:06;;;;;;;9.55;4.13;;;14.90;80.20;;;;;;9172772;19;20021;-67
2024/03/15 10:02:23;;;;;;;6.80;3.65;;;14.90;80.20;;;;;;9173186;19;20018;-66
2024/03/15 10:05:30;;;;;;;6.43;2.78;;;14.90;80.20;;;;;;9172677;19;20021;-67
2024/03/15 10:08:36;;;;;;;9.80;3.22;;;14.90;80.80;;;;;;9169240;19;20028;-67
2024/03/15 10:11:46;;;;;;;6.88;3.42;;;15.00;80.30;;;;;;9173637;19;20017;-68
2024/03/15 10:14:52;;;;;;;11.52;3.58;;;14.90;80.20;;;;;;9173915;19;20018;-67
2024/03/15 10:18:03;;;;;;;8.38;3.85;;;14.90;80.20;;;;;;9172409;19;20025;-67
2024/03/15 10:21:09;;;;;;;9.82;3.28;;;14.90;80.20;;;;;;9172820;19;20018;-67
2024/03/15 10:24:17;;;;;;;6.05;2.80;;;14.90;80.20;;;;;;9173747;19;20017;-68
2024/03/15 10:27:26;;;;;;;6.60;3.33;;;14.90;80.20;;;;;;9174945;19;20018;-69
2024/03/15 10:30:33;;;;;;;8.27;3.47;;;14.90;80.20;;;;;;9171615;19;20018;-68
2024/03/15 10:33:42;;;;;;;7.90;3.65;;;14.90;80.20;;;;;;9172295;19;20015;-68
2024/03/15 10:36:50;;;;;;;8.55;3.65;;;15.00;80.30;;;;;;9170912;19;20011;-69
2024/03/15 10:39:56;;;;;;;6.93;3.72;;;14.90;80.30;;;;;;9173409;19;20524;-70
2024/03/15 10:43:08;;;;;;;7.40;4.03;;;15.00;80.40;;;;;;9173292;19;20085;-68
2024/03/15 10:46:14;;;;;;;9.75;3.92;;;15.10;80.60;;;;;;9171579;19;20006;-68
2024/03/15 10:49:23;;;;;;;5.55;3.10;;;15.20;80.60;;;;;;9166233;19;20045;-69
2024/03/15 10:52:29;;;;;;;9.40;3.60;;;15.20;80.70;;;;;;9172314;19;20020;-68
2024/03/15 10:55:36;;;;;;;7.93;2.70;;;15.40;81.40;;;;;;9171950;19;20050;-69
2024/03/15 10:58:46;;;;;;;9.50;2.80;;;15.50;80.80;;;;;;9172507;19;20035;-69
2024/03/15 11:01:54;;;;;;;7.15;2.95;;;15.60;80.70;;;;;;9171675;19;20022;-68
2024/03/15 11:05:00;;;;;;;8.75;2.67;;;15.80;80.60;;;;;;9170567;19;20479;-69
2024/03/15 11:08:09;;;;;;;3.80;2.20;;;15.90;80.30;;;;;;9180587;19;20344;-69
2024/03/15 11:11:16;;;;;;;12.77;3.15;;;16.00;80.10;;;;;;9178325;19;20015;-69
2024/03/15 11:14:28;;;;;;;7.55;2.40;;;16.10;80.00;;;;;;9180243;19;20042;-69
2024/03/15 11:17:33;;;;;;;7.07;2.38;;;16.20;80.00;;;;;;9171919;19;20352;-70
2024/03/15 11:20:48;;;;;;;9.77;2.30;;;16.30;79.70;;;;;;9178821;19;20019;-69
2024/03/15 11:23:54;;;;;;;10.75;2.42;;;16.40;79.50;;;;;;9178875;19;20021;-69
2024/03/15 11:27:05;;;;;;;12.50;2.50;;;16.40;79.40;;;;;;9180038;19;20021;-69
2024/03/15 11:30:15;;;;;;;7.55;2.30;;;16.50;79.20;;;;;;9178117;19;20519;-69
2024/03/15 11:33:23;;;;;;;9.50;3.60;;;16.60;79.10;;;;;;9178529;19;20018;-69
2024/03/15 11:36:29;;;;;;;5.80;2.47;;;16.70;79.00;;;;;;9176590;19;20099;-69
2024/03/15 11:39:37;;;;;;;9.20;2.55;;;16.70;78.80;;;;;;9164374;19;20048;-69
2024/03/15 11:42:42;;;;;;;5.65;2.03;;;16.80;78.60;;;;;;9178709;19;20014;-69
2024/03/15 11:45:53;;;;;;;8.05;2.38;;;16.80;78.40;;;;;;9179231;19;20661;-69
2024/03/15 11:49:03;;;;;;;10.80;3.15;;;16.80;78.10;;;;;;9177267;19;20084;-69
2024/03/15 11:52:12;;;;;;;6.53;2.30;;;16.90;78.30;;;;;;9176261;19;20482;-70
2024/03/15 11:55:18;;;;;;;6.43;2.08;;;16.90;78.20;;;;;;9179187;19;20025;-69
2024/03/15 11:58:26;;;;;;;5.10;1.70;;;16.90;78.00;;;;;;9179664;19;20022;-69
2024/03/15 12:01:34;;;;;;;4.45;1.48;;;17.00;78.00;;;;;;9179392;19;20449;-73
2024/03/15 12:04:42;;;;;;;11.35;2.75;;;17.00;77.80;;;;;;9177771;19;20018;-67
2024/03/15 12:07:47;;;;;;;7.30;1.77;;;17.10;77.70;;;;;;9178634;19;20042;-68
2024/03/15 12:10:56;;;;;;;8.75;2.17;;;17.10;78.10;;;;;;9175027;19;20014;-67
2024/03/15 12:14:02;;;;;;;8.63;1.73;;;17.10;77.20;;;;;;9178842;19;20051;-67
2024/03/15 12:17:16;;;;;;;5.55;1.63;;;17.10;77.10;;;;;;9177287;19;20014;-67
2024/03/15 12:20:22;;;;;;;8.77;1.33;;;17.10;76.80;;;;;;9176718;19;20022;-67
2024/03/15 12:23:29;;;;;;;8.55;2.08;;;17.10;76.90;;;;;;9177922;19;20021;-67
2024/03/15 12:26:38;;;;;;;7.65;1.60;;;17.10;76.70;;;;;;9176313;19;20399;-67
2024/03/15 12:29:45;;;;;;;9.75;1.60;;;17.00;76.80;;;;;;9177707;19;20025;-67
2024/03/15 12:32:54;;;;;;;7.18;1.55;;;17.00;76.90;;;;;;9177728;19;20017;-67
2024/03/15 12:36:04;;;;;;;8.52;2.42;;;17.00;77.00;;;;;;9177808;19;20018;-67
2024/03/15 12:39:12;;;;;;;10.10;2.20;;;16.90;77.00;;;;;;9175895;19;20013;-67
2024/03/15 12:42:19;;;;;;;6.97;1.80;;;16.90;77.00;;;;;;9177595;19;20490;-67
2024/03/15 12:45:25;;;;;;;6.07;2.08;;;16.80;77.70;;;;;;9177735;19;20489;-67
2024/03/15 12:48:35;;;;;;;8.02;2.15;;;16.80;77.20;;;;;;9177046;19;20019;-67
2024/03/15 12:51:41;;;;;;;6.35;2.28;;;16.70;77.40;;;;;;9170673;19;20109;-66
2024/03/15 12:54:49;;;;;;;6.03;2.10;;;16.70;77.50;;;;;;9176703;19;20014;-67
2024/03/15 12:57:54;;;;;;;10.93;2.85;;;16.70;77.60;;;;;;9177537;19;20022;-67
2024/03/15 13:01:02;;;;;;;8.73;2.25;;;16.60;77.50;;;;;;9177058;19;20387;-67
2024/03/15 13:04:10;;;;;;;7.60;2.45;;;16.60;77.60;;;;;;9176234;19;20022;-67
2024/03/15 13:07:18;;;;;;;7.53;2.30;;;16.50;77.50;;;;;;9175555;19;20014;-67
2024/03/15 13:10:23;;;;;;;9.52;2.70;;;16.50;77.60;;;;;;9175888;19;20043;-67
2024/03/15 13:13:31;;;;;;;9.35;2.58;;;16.40;77.60;;;;;;9175807;19;20026;-67
2024/03/15 13:16:38;;;;;;;8.35;2.70;;;16.30;77.70;;;;;;9177160;19;20051;-67
2024/03/15 13:19:48;;;;;;;7.80;2.40;;;16.30;77.80;;;;;;9175291;19;20798;-67
2024/03/15 13:22:55;;;;;;;6.03;2.65;;;16.20;77.90;;;;;;9175333;19;20074;-67
2024/03/15 13:26:03;;;;;;;8.35;2.95;;;16.20;78.20;;;;;;9174449;19;20022;-67
2024/03/15 13:29:12;;;;;;;9.48;3.50;;;16.20;78.30;;;;;;9173558;19;20006;-67
2024/03/15 13:32:20;;;;;;;6.78;3.20;;;16.20;78.50;;;;;;9171960;19;20037;-68
2024/03/15 13:35:28;;;;;;;6.07;2.90;;;16.20;78.70;;;;;;9174816;19;20451;-68
2024/03/15 13:38:36;;;;;;;5.47;2.50;;;16.20;78.80;;;;;;9173487;19;20018;-68
2024/03/15 13:41:42;;;;;;;7.43;2.13;;;16.30;78.90;;;;;;9174666;19;20014;-68
2024/03/15 13:44:50;;;;;;;7.00;2.03;;;16.30;78.80;;;;;;9174388;19;20022;-68
2024/03/15 13:48:28;;;;;;;4.60;1.70;;;16.30;78.80;;;;;;9173459;19;20013;-68
2024/03/15 13:51:38;;;;;;;2.80;1.40;;;16.40;78.80;;;;;;9160094;19;20459;-68
2024/03/15 13:54:44;;;;;;;4.20;1.70;;;16.40;78.60;;;;;;9164813;19;20376;-67
2024/03/15 13:57:52;;;;;;;1.42;1.30;;;16.40;78.50;;;;;;9171029;19;20022;-67
2024/03/15 14:00:58;;;;;;;5.00;1.98;;;16.50;78.50;;;;;;9170590;19;20057;-68
2024/03/15 14:04:06;;;;;;;5.25;1.73;;;16.50;78.30;;;;;;9170946;19;20014;-67
2024/03/15 14:07:16;;;;;;;8.70;2.30;;;16.50;78.30;;;;;;9171123;19;20021;-67
2024/03/15 14:10:29;;;;;;;10.57;2.35;;;16.50;78.30;;;;;;9165801;19;20022;-67
2024/03/15 14:13:34;;;;;;;8.60;2.65;;;16.40;78.30;;;;;;9166435;19;20372;-68
2024/03/15 14:16:46;;;;;;;5.10;2.20;;;16.40;78.30;;;;;;9170469;19;20034;-67
2024/03/15 14:19:52;;;;;;;6.40;2.10;;;16.40;78.30;;;;;;9171297;19;20019;-67
2024/03/15 14:23:02;;;;;;;7.18;2.50;;;16.40;78.40;;;;;;9168566;19;20015;-67
2024/03/15 14:26:09;;;;;;;5.45;2.25;;;16.30;78.50;;;;;;9169857;19;20086;-67
2024/03/15 14:29:20;;;;;;;4.60;2.65;;;16.30;78.60;;;;;;9170579;19;20030;-67
2024/03/15 14:32:26;;;;;;;3.38;1.92;;;16.20;78.60;;;;;;9166672;19;20015;-67
2024/03/15 14:35:33;;;;;;;7.10;2.42;;;16.20;78.60;;;;;;9168367;19;20019;-67
2024/03/15 14:38:42;;;;;;;4.05;2.22;;;16.20;78.60;;;;;;9168348;19;20018;-68
2024/03/15 14:41:49;;;;;;;3.60;2.42;;;16.10;78.60;;;;;;9174850;19;20015;-67
2024/03/15 14:44:55;;;;;;;8.85;3.08;;;16.10;78.70;;;;;;9178778;19;20014;-67
2024/03/15 14:48:03;;;;;;;5.93;3.13;;;16.00;78.70;;;;;;9175551;19;20018;-67
2024/03/15 14:51:20;;;;;;;3.78;2.90;;;15.90;78.80;;;;;;9171731;19;20011;-67
2024/03/15 14:54:31;;;;;;;7.85;3.58;;;15.90;78.90;;;;;;9173696;19;20021;-67
2024/03/15 14:57:37;;;;;;;5.90;2.88;;;15.90;79.10;;;;;;9175251;19;20019;-67
2024/03/15 15:00:48;;;;;;;6.68;2.58;;;15.90;79.20;;;;;;9177863;19;20010;-67
2024/03/15 15:03:55;;;;;;;6.28;2.60;;;15.90;79.30;;;;;;9175764;19;20882;-68
2024/03/15 15:07:03;;;;;;;6.43;2.78;;;15.90;79.30;;;;;;9178654;19;20019;-67
2024/03/15 15:10:12;;;;;;;8.20;2.60;;;15.90;79.30;;;;;;9178013;19;20018;-68
2024/03/15 15:13:20;;;;;;;4.47;2.00;;;15.90;79.90;;;;;;9174180;19;20025;-67
2024/03/15 15:16:26;;;;;;;7.40;2.28;;;15.90;79.30;;;;;;9176331;19;20802;-67
2024/03/15 15:19:37;;;;;;;8.65;2.28;;;15.90;79.20;;;;;;9178072;19;20037;-67
2024/03/15 15:22:46;;;;;;;6.53;2.38;;;16.00;79.30;;;;;;9177317;19;20023;-67
2024/03/15 15:25:57;;;;;;;5.63;2.50;;;16.00;79.30;;;;;;9176829;19;20029;-67
2024/03/15 15:29:03;;;;;;;4.25;2.53;;;16.00;79.30;;;;;;9177183;19;20022;-67
2024/03/15 15:32:11;;;;;;;4.85;2.22;;;16.00;79.10;;;;;;9176424;19;20014;-67
2024/03/15 15:35:17;;;;;;;6.82;2.42;;;16.00;79.10;;;;;;9175666;19;20356;-67
2024/03/15 15:38:24;;;;;;;4.15;2.58;;;16.00;79.00;;;;;;9174549;19;20018;-66
2024/03/15 15:41:32;;;;;;;6.57;2.90;;;16.00;78.90;;;;;;9176277;19;20051;-67
2024/03/15 15:44:40;;;;;;;2.90;1.73;;;15.90;78.80;;;;;;9175437;19;20018;-68
2024/03/15 15:47:46;;;;;;;5.47;2.00;;;15.90;79.30;;;;;;9175792;19;20014;-67
2024/03/15 15:50:53;;;;;;;4.18;1.90;;;15.90;78.70;;;;;;9172015;19;20022;-67
2024/03/15 15:53:59;;;;;;;5.82;2.08;;;15.90;78.80;;;;;;9171358;19;20043;-67
2024/03/15 15:57:10;;;;;;;4.25;1.80;;;15.90;78.90;;;;;;9175238;19;20021;-67
2024/03/15 16:00:18;;;;;;;5.07;2.00;;;15.80;78.70;;;;;;9175761;19;20108;-66
2024/03/15 16:03:28;;;;;;;6.53;2.28;;;15.80;78.70;;;;;;9175097;19;20069;-66
2024/03/15 16:06:33;;;;;;;6.22;2.30;;;15.80;78.70;;;;;;9175595;19;20022;-67
2024/03/15 16:09:41;;;;;;;4.90;2.00;;;15.70;78.70;;;;;;9175308;19;20018;-67
2024/03/15 16:12:49;;;;;;;4.07;2.20;;;15.70;79.30;;;;;;9171864;19;20014;-66